CheckWX is a tool to help pilots better visualize weather data.  It is not intended as a substitute for an official pre-flight weather briefing.

17:57:33 UTC

WMPA TAF
Pulau Pangkor Airport
Pangkor Island, Malaysia
TAF WMPA 240500Z 2406/2506 VRB05KT 9000 FEW022 PROB30 TEMPO 2409/2413 5000 TSRA FEW017CB

Mar-24@
06:00 UTC

Mar-24 @ 06:00 UTC

Mar-25@
06:00 UTC

Mar-25 @ 06:00 UTC

TAF WMPA 240500Z 2406/2506 VRB05KT 9000 FEW022
Wind
  • Variable at 5 KTS
Cloud Levels
  • Few at 2,200' AGL

Mar-24@
09:00 UTC

Mar-24 @ 09:00 UTC

Mar-24@
13:00 UTC

Mar-24 @ 13:00 UTC

PROB30 TEMPO 2409/2413 5000 TSRA FEW017CB

Expired

Conditions
Thunderstorm, Rain
Cloud Levels
  • Few at 1,700' AGL